sensor_id;sensor_type;location;lat;lon;timestamp;pressure;altitude;pressure_sealevel;temperature;humidity
57885;BME280;43703;51.060;-0.086;2022-08-18T00:02:03;100069.59;;;17.69;68.56
57885;BME280;43703;51.060;-0.086;2022-08-18T00:04:25;100075.11;;;17.75;68.21
57885;BME280;43703;51.060;-0.086;2022-08-18T00:06:51;100079.48;;;17.76;68.34
57885;BME280;43703;51.060;-0.086;2022-08-18T00:09:17;100079.16;;;17.95;68.37
57885;BME280;43703;51.060;-0.086;2022-08-18T00:11:43;100077.49;;;17.96;68.45
57885;BME280;43703;51.060;-0.086;2022-08-18T00:14:10;100075.72;;;17.81;68.32
57885;BME280;43703;51.060;-0.086;2022-08-18T00:16:33;100075.31;;;17.84;68.16
57885;BME280;43703;51.060;-0.086;2022-08-18T00:18:58;100078.51;;;18.25;68.17
57885;BME280;43703;51.060;-0.086;2022-08-18T00:21:24;100083.98;;;18.50;68.08
57885;BME280;43703;51.060;-0.086;2022-08-18T00:23:49;100085.51;;;18.52;67.94
57885;BME280;43703;51.060;-0.086;2022-08-18T00:26:14;100090.40;;;18.10;67.91
57885;BME280;43703;51.060;-0.086;2022-08-18T00:28:40;100090.32;;;18.18;67.95
57885;BME280;43703;51.060;-0.086;2022-08-18T00:31:06;100091.25;;;17.90;67.46
57885;BME280;43703;51.060;-0.086;2022-08-18T00:33:31;100089.46;;;17.99;67.35
57885;BME280;43703;51.060;-0.086;2022-08-18T00:35:56;100087.79;;;18.01;67.12
57885;BME280;43703;51.060;-0.086;2022-08-18T00:38:22;100084.37;;;17.97;67.38
57885;BME280;43703;51.060;-0.086;2022-08-18T00:40:49;100083.64;;;17.99;67.42
57885;BME280;43703;51.060;-0.086;2022-08-18T00:43:16;100075.43;;;17.93;67.50
57885;BME280;43703;51.060;-0.086;2022-08-18T00:45:41;100073.61;;;18.13;67.50
57885;BME280;43703;51.060;-0.086;2022-08-18T00:48:07;100068.53;;;17.28;68.88
57885;BME280;43703;51.060;-0.086;2022-08-18T00:50:34;100065.41;;;16.48;71.00
57885;BME280;43703;51.060;-0.086;2022-08-18T00:53:01;100060.57;;;16.99;70.97
57885;BME280;43703;51.060;-0.086;2022-08-18T00:55:22;100059.43;;;17.65;69.27
57885;BME280;43703;51.060;-0.086;2022-08-18T00:57:49;100058.15;;;18.10;68.50
57885;BME280;43703;51.060;-0.086;2022-08-18T01:00:13;100059.26;;;17.06;69.97
57885;BME280;43703;51.060;-0.086;2022-08-18T01:02:42;100054.74;;;17.43;68.92
57885;BME280;43703;51.060;-0.086;2022-08-18T01:05:08;100049.35;;;17.26;69.05
57885;BME280;43703;51.060;-0.086;2022-08-18T01:07:34;100049.05;;;17.71;68.32
57885;BME280;43703;51.060;-0.086;2022-08-18T01:09:54;100043.19;;;17.77;68.12
57885;BME280;43703;51.060;-0.086;2022-08-18T01:12:19;100038.28;;;17.57;68.33
57885;BME280;43703;51.060;-0.086;2022-08-18T01:14:45;100038.80;;;17.77;67.49
57885;BME280;43703;51.060;-0.086;2022-08-18T01:17:10;100043.74;;;17.87;67.14
57885;BME280;43703;51.060;-0.086;2022-08-18T01:19:37;100043.34;;;17.85;67.22
57885;BME280;43703;51.060;-0.086;2022-08-18T01:22:06;100045.21;;;17.39;67.26
57885;BME280;43703;51.060;-0.086;2022-08-18T01:24:29;100045.17;;;17.63;67.07
57885;BME280;43703;51.060;-0.086;2022-08-18T01:26:52;100046.70;;;17.80;66.83
57885;BME280;43703;51.060;-0.086;2022-08-18T01:29:19;100043.90;;;17.68;66.59
57885;BME280;43703;51.060;-0.086;2022-08-18T01:31:47;100046.01;;;17.46;66.94
57885;BME280;43703;51.060;-0.086;2022-08-18T01:34:09;100044.94;;;17.89;67.06
57885;BME280;43703;51.060;-0.086;2022-08-18T01:36:36;100047.14;;;17.60;67.00
57885;BME280;43703;51.060;-0.086;2022-08-18T01:39:00;100044.83;;;17.63;67.03
57885;BME280;43703;51.060;-0.086;2022-08-18T01:41:25;100047.46;;;17.69;67.16
57885;BME280;43703;51.060;-0.086;2022-08-18T01:43:50;100049.75;;;17.55;67.74
57885;BME280;43703;51.060;-0.086;2022-08-18T01:46:17;100049.42;;;17.67;67.98
57885;BME280;43703;51.060;-0.086;2022-08-18T01:48:41;100049.51;;;17.88;67.84
57885;BME280;43703;51.060;-0.086;2022-08-18T01:51:08;100047.22;;;17.88;67.77
57885;BME280;43703;51.060;-0.086;2022-08-18T01:53:33;100047.07;;;18.14;67.87
57885;BME280;43703;51.060;-0.086;2022-08-18T01:55:57;100047.23;;;18.10;67.83
57885;BME280;43703;51.060;-0.086;2022-08-18T01:58:23;100048.38;;;18.09;67.96
57885;BME280;43703;51.060;-0.086;2022-08-18T02:00:48;100047.28;;;17.96;67.93
57885;BME280;43703;51.060;-0.086;2022-08-18T02:03:14;100049.13;;;18.08;67.75
57885;BME280;43703;51.060;-0.086;2022-08-18T02:05:44;100046.66;;;18.03;67.59
57885;BME280;43703;51.060;-0.086;2022-08-18T02:08:06;100043.02;;;18.02;67.63
57885;BME280;43703;51.060;-0.086;2022-08-18T02:10:30;100041.14;;;17.75;67.61
57885;BME280;43703;51.060;-0.086;2022-08-18T02:12:56;100042.40;;;18.20;67.69
57885;BME280;43703;51.060;-0.086;2022-08-18T02:15:22;100041.15;;;18.14;67.37
57885;BME280;43703;51.060;-0.086;2022-08-18T02:17:48;100043.77;;;17.88;67.30
57885;BME280;43703;51.060;-0.086;2022-08-18T02:20:14;100048.51;;;18.06;66.88
57885;BME280;43703;51.060;-0.086;2022-08-18T02:22:38;100052.61;;;18.10;67.17
57885;BME280;43703;51.060;-0.086;2022-08-18T02:25:04;100051.38;;;17.54;67.45
57885;BME280;43703;51.060;-0.086;2022-08-18T02:27:29;100050.58;;;17.41;67.63
57885;BME280;43703;51.060;-0.086;2022-08-18T02:29:55;100053.90;;;17.95;67.71
57885;BME280;43703;51.060;-0.086;2022-08-18T02:32:20;100059.67;;;18.05;67.76
57885;BME280;43703;51.060;-0.086;2022-08-18T02:34:45;100055.21;;;18.16;67.87
57885;BME280;43703;51.060;-0.086;2022-08-18T02:37:11;100052.17;;;18.12;67.95
57885;BME280;43703;51.060;-0.086;2022-08-18T02:39:36;100052.96;;;18.15;67.99
57885;BME280;43703;51.060;-0.086;2022-08-18T02:42:02;100059.67;;;17.91;67.87
57885;BME280;43703;51.060;-0.086;2022-08-18T02:44:27;100062.48;;;17.94;67.82
57885;BME280;43703;51.060;-0.086;2022-08-18T02:46:54;100059.75;;;18.52;67.83
57885;BME280;43703;51.060;-0.086;2022-08-18T02:49:18;100056.64;;;18.31;67.83
57885;BME280;43703;51.060;-0.086;2022-08-18T02:51:44;100062.41;;;18.07;67.72
57885;BME280;43703;51.060;-0.086;2022-08-18T02:54:09;100062.28;;;18.42;67.72
57885;BME280;43703;51.060;-0.086;2022-08-18T02:56:36;100059.02;;;18.14;67.53
57885;BME280;43703;51.060;-0.086;2022-08-18T02:59:04;100054.59;;;18.13;67.45
57885;BME280;43703;51.060;-0.086;2022-08-18T03:01:29;100053.32;;;18.66;67.43
57885;BME280;43703;51.060;-0.086;2022-08-18T03:03:52;100055.38;;;18.22;67.41
57885;BME280;43703;51.060;-0.086;2022-08-18T03:06:18;100059.62;;;18.44;67.35
57885;BME280;43703;51.060;-0.086;2022-08-18T03:08:43;100061.31;;;17.77;67.48
57885;BME280;43703;51.060;-0.086;2022-08-18T03:11:08;100059.50;;;17.78;67.84
57885;BME280;43703;51.060;-0.086;2022-08-18T03:13:33;100060.45;;;18.44;67.53
57885;BME280;43703;51.060;-0.086;2022-08-18T03:15:59;100062.96;;;17.46;68.86
57885;BME280;43703;51.060;-0.086;2022-08-18T03:18:25;100063.48;;;18.04;68.29
57885;BME280;43703;51.060;-0.086;2022-08-18T03:20:51;100058.10;;;18.21;68.06
57885;BME280;43703;51.060;-0.086;2022-08-18T03:23:16;100059.06;;;17.96;68.38
57885;BME280;43703;51.060;-0.086;2022-08-18T03:25:44;100057.67;;;17.77;68.88
57885;BME280;43703;51.060;-0.086;2022-08-18T03:28:07;100058.53;;;17.47;68.43
57885;BME280;43703;51.060;-0.086;2022-08-18T03:30:32;100059.08;;;18.32;68.16
57885;BME280;43703;51.060;-0.086;2022-08-18T03:32:57;100064.02;;;18.09;67.79
57885;BME280;43703;51.060;-0.086;2022-08-18T03:35:23;100066.23;;;17.97;67.65
57885;BME280;43703;51.060;-0.086;2022-08-18T03:37:48;100064.99;;;18.34;67.46
57885;BME280;43703;51.060;-0.086;2022-08-18T03:40:13;100061.48;;;18.00;67.75
57885;BME280;43703;51.060;-0.086;2022-08-18T03:42:39;100058.58;;;17.87;67.75
57885;BME280;43703;51.060;-0.086;2022-08-18T03:45:06;100059.63;;;18.20;68.12
57885;BME280;43703;51.060;-0.086;2022-08-18T03:47:29;100060.54;;;18.37;67.88
57885;BME280;43703;51.060;-0.086;2022-08-18T03:49:55;100056.73;;;17.97;68.45
57885;BME280;43703;51.060;-0.086;2022-08-18T03:52:20;100058.74;;;18.18;67.76
57885;BME280;43703;51.060;-0.086;2022-08-18T03:54:46;100060.59;;;17.87;67.37
57885;BME280;43703;51.060;-0.086;2022-08-18T03:57:12;100060.12;;;18.38;67.38
57885;BME280;43703;51.060;-0.086;2022-08-18T03:59:37;100061.80;;;18.42;67.51
57885;BME280;43703;51.060;-0.086;2022-08-18T04:02:03;100061.57;;;17.80;67.78
57885;BME280;43703;51.060;-0.086;2022-08-18T04:04:27;100061.28;;;17.90;67.76
57885;BME280;43703;51.060;-0.086;2022-08-18T04:06:54;100061.35;;;17.87;67.38
57885;BME280;43703;51.060;-0.086;2022-08-18T04:09:19;100059.49;;;18.16;67.18
57885;BME280;43703;51.060;-0.086;2022-08-18T04:11:44;100056.26;;;18.38;66.62
57885;BME280;43703;51.060;-0.086;2022-08-18T04:14:10;100054.83;;;17.85;67.31
57885;BME280;43703;51.060;-0.086;2022-08-18T04:16:33;100053.89;;;17.75;67.34
57885;BME280;43703;51.060;-0.086;2022-08-18T04:18:59;100055.14;;;17.72;67.74
57885;BME280;43703;51.060;-0.086;2022-08-18T04:21:25;100057.07;;;18.11;67.81
57885;BME280;43703;51.060;-0.086;2022-08-18T04:23:50;100057.44;;;18.24;67.67
57885;BME280;43703;51.060;-0.086;2022-08-18T04:26:16;100060.26;;;17.81;67.80
57885;BME280;43703;51.060;-0.086;2022-08-18T04:28:41;100062.25;;;17.88;67.78
57885;BME280;43703;51.060;-0.086;2022-08-18T04:31:10;100059.60;;;17.75;67.70
57885;BME280;43703;51.060;-0.086;2022-08-18T04:33:32;100059.71;;;17.96;67.54
57885;BME280;43703;51.060;-0.086;2022-08-18T04:35:57;100059.76;;;18.21;67.77
57885;BME280;43703;51.060;-0.086;2022-08-18T04:38:23;100059.95;;;17.99;67.35
57885;BME280;43703;51.060;-0.086;2022-08-18T04:40:48;100057.29;;;18.31;67.11
57885;BME280;43703;51.060;-0.086;2022-08-18T04:43:14;100056.82;;;18.10;66.98
57885;BME280;43703;51.060;-0.086;2022-08-18T04:45:40;100054.34;;;18.37;67.14
57885;BME280;43703;51.060;-0.086;2022-08-18T04:48:05;100055.73;;;17.86;68.01
57885;BME280;43703;51.060;-0.086;2022-08-18T04:50:30;100058.68;;;18.07;67.54
57885;BME280;43703;51.060;-0.086;2022-08-18T04:52:56;100061.61;;;18.31;66.80
57885;BME280;43703;51.060;-0.086;2022-08-18T04:55:21;100059.91;;;18.18;66.88
57885;BME280;43703;51.060;-0.086;2022-08-18T04:57:47;100062.17;;;18.62;66.97
57885;BME280;43703;51.060;-0.086;2022-08-18T05:00:12;100056.57;;;17.99;66.96
57885;BME280;43703;51.060;-0.086;2022-08-18T05:02:37;100056.02;;;17.10;68.51
57885;BME280;43703;51.060;-0.086;2022-08-18T05:05:03;100052.82;;;17.03;69.82
57885;BME280;43703;51.060;-0.086;2022-08-18T05:07:28;100054.79;;;16.65;70.98
57885;BME280;43703;51.060;-0.086;2022-08-18T05:09:53;100056.16;;;16.42;72.31
57885;BME280;43703;51.060;-0.086;2022-08-18T05:12:19;100055.91;;;17.35;69.91
57885;BME280;43703;51.060;-0.086;2022-08-18T05:14:44;100059.83;;;17.89;68.88
57885;BME280;43703;51.060;-0.086;2022-08-18T05:17:11;100060.21;;;17.56;68.59
57885;BME280;43703;51.060;-0.086;2022-08-18T05:19:35;100059.12;;;17.70;69.01
57885;BME280;43703;51.060;-0.086;2022-08-18T05:22:01;100053.86;;;18.25;68.59
57885;BME280;43703;51.060;-0.086;2022-08-18T05:24:28;100050.70;;;17.96;68.40
57885;BME280;43703;51.060;-0.086;2022-08-18T05:26:53;100048.61;;;17.88;68.58
57885;BME280;43703;51.060;-0.086;2022-08-18T05:29:19;100052.26;;;18.08;68.27
57885;BME280;43703;51.060;-0.086;2022-08-18T05:31:43;100053.12;;;18.06;68.07
57885;BME280;43703;51.060;-0.086;2022-08-18T05:34:09;100048.21;;;17.82;68.38
57885;BME280;43703;51.060;-0.086;2022-08-18T05:36:44;100045.58;;;16.87;70.11
57885;BME280;43703;51.060;-0.086;2022-08-18T05:39:07;100048.30;;;17.68;69.15
57885;BME280;43703;51.060;-0.086;2022-08-18T05:41:28;100047.41;;;17.74;68.36
57885;BME280;43703;51.060;-0.086;2022-08-18T05:43:51;100049.44;;;18.26;67.77
57885;BME280;43703;51.060;-0.086;2022-08-18T05:46:16;100046.28;;;18.17;67.69
57885;BME280;43703;51.060;-0.086;2022-08-18T05:48:41;100046.24;;;18.18;67.63
57885;BME280;43703;51.060;-0.086;2022-08-18T05:51:13;100046.65;;;17.89;68.08
57885;BME280;43703;51.060;-0.086;2022-08-18T05:53:32;100048.56;;;18.11;68.16
57885;BME280;43703;51.060;-0.086;2022-08-18T05:56:00;100052.19;;;18.21;67.94
57885;BME280;43703;51.060;-0.086;2022-08-18T05:58:27;100054.38;;;18.56;68.19
57885;BME280;43703;51.060;-0.086;2022-08-18T06:00:51;100055.07;;;18.26;68.23
57885;BME280;43703;51.060;-0.086;2022-08-18T06:03:19;100057.94;;;18.48;67.94
57885;BME280;43703;51.060;-0.086;2022-08-18T06:05:46;100056.01;;;18.55;67.23
57885;BME280;43703;51.060;-0.086;2022-08-18T06:08:09;100058.00;;;18.70;66.84
57885;BME280;43703;51.060;-0.086;2022-08-18T06:10:30;100058.18;;;18.33;67.79
57885;BME280;43703;51.060;-0.086;2022-08-18T06:12:58;100057.67;;;18.64;67.61
57885;BME280;43703;51.060;-0.086;2022-08-18T06:15:25;100058.52;;;18.25;68.38
57885;BME280;43703;51.060;-0.086;2022-08-18T06:18:02;100053.71;;;18.62;68.33
57885;BME280;43703;51.060;-0.086;2022-08-18T06:20:17;100057.65;;;18.30;67.49
57885;BME280;43703;51.060;-0.086;2022-08-18T06:22:43;100059.94;;;18.57;67.66
57885;BME280;43703;51.060;-0.086;2022-08-18T06:25:08;100060.84;;;19.08;67.72
57885;BME280;43703;51.060;-0.086;2022-08-18T06:27:35;100059.56;;;19.39;67.24
57885;BME280;43703;51.060;-0.086;2022-08-18T06:30:00;100059.24;;;19.46;66.72
57885;BME280;43703;51.060;-0.086;2022-08-18T06:32:26;100055.48;;;18.89;67.55
57885;BME280;43703;51.060;-0.086;2022-08-18T06:34:53;100052.72;;;19.40;66.85
57885;BME280;43703;51.060;-0.086;2022-08-18T06:37:19;100052.60;;;19.41;65.94
57885;BME280;43703;51.060;-0.086;2022-08-18T06:39:41;100053.50;;;18.61;67.60
57885;BME280;43703;51.060;-0.086;2022-08-18T06:42:01;100057.93;;;19.11;67.52
57885;BME280;43703;51.060;-0.086;2022-08-18T06:44:30;100058.96;;;19.57;67.94
57885;BME280;43703;51.060;-0.086;2022-08-18T06:46:55;100058.59;;;19.71;67.96
57885;BME280;43703;51.060;-0.086;2022-08-18T06:49:26;100054.62;;;19.87;67.26
57885;BME280;43703;51.060;-0.086;2022-08-18T06:51:42;100055.96;;;19.52;66.50
57885;BME280;43703;51.060;-0.086;2022-08-18T07:01:24;100052.52;;;22.02;63.05
57885;BME280;43703;51.060;-0.086;2022-08-18T07:03:52;100056.25;;;23.14;65.29
57885;BME280;43703;51.060;-0.086;2022-08-18T07:06:24;100057.52;;;22.72;61.00
57885;BME280;43703;51.060;-0.086;2022-08-18T07:08:42;100059.57;;;22.46;60.24
57885;BME280;43703;51.060;-0.086;2022-08-18T07:11:13;100060.76;;;24.01;64.23
57885;BME280;43703;51.060;-0.086;2022-08-18T07:13:37;100063.61;;;24.57;57.24
57885;BME280;43703;51.060;-0.086;2022-08-18T07:18:26;100070.87;;;24.40;59.68
57885;BME280;43703;51.060;-0.086;2022-08-18T07:20:51;100072.88;;;22.61;57.52
57885;BME280;43703;51.060;-0.086;2022-08-18T07:23:22;100072.28;;;22.83;59.88
57885;BME280;43703;51.060;-0.086;2022-08-18T07:25:41;100075.36;;;20.64;64.42
57885;BME280;43703;51.060;-0.086;2022-08-18T07:28:06;100075.86;;;20.13;65.22
57885;BME280;43703;51.060;-0.086;2022-08-18T07:30:33;100081.77;;;19.34;66.44
57885;BME280;43703;51.060;-0.086;2022-08-18T07:33:00;100086.95;;;18.91;66.41
57885;BME280;43703;51.060;-0.086;2022-08-18T07:35:24;100086.74;;;19.22;67.44
57885;BME280;43703;51.060;-0.086;2022-08-18T07:37:52;100085.43;;;19.72;66.92
57885;BME280;43703;51.060;-0.086;2022-08-18T07:40:21;100083.24;;;19.72;66.20
57885;BME280;43703;51.060;-0.086;2022-08-18T07:42:46;100084.92;;;19.38;70.22
57885;BME280;43703;51.060;-0.086;2022-08-18T07:45:11;100083.69;;;19.34;74.78
57885;BME280;43703;51.060;-0.086;2022-08-18T07:47:33;100083.64;;;21.10;72.66
57885;BME280;43703;51.060;-0.086;2022-08-18T07:49:55;100087.65;;;21.43;64.65
57885;BME280;43703;51.060;-0.086;2022-08-18T07:52:24;100093.38;;;20.04;70.52
57885;BME280;43703;51.060;-0.086;2022-08-18T07:54:53;100095.09;;;20.64;69.82
57885;BME280;43703;51.060;-0.086;2022-08-18T07:57:18;100101.64;;;20.99;69.17
57885;BME280;43703;51.060;-0.086;2022-08-18T07:59:44;100099.93;;;20.96;67.27
57885;BME280;43703;51.060;-0.086;2022-08-18T08:02:15;100097.93;;;22.63;65.28
57885;BME280;43703;51.060;-0.086;2022-08-18T08:04:34;100102.22;;;23.79;61.16
57885;BME280;43703;51.060;-0.086;2022-08-18T08:06:59;100103.07;;;24.19;59.82
57885;BME280;43703;51.060;-0.086;2022-08-18T08:09:24;100105.02;;;23.74;61.70
57885;BME280;43703;51.060;-0.086;2022-08-18T08:11:50;100107.85;;;23.61;58.49
57885;BME280;43703;51.060;-0.086;2022-08-18T08:14:20;100109.49;;;23.85;58.95
57885;BME280;43703;51.060;-0.086;2022-08-18T08:16:41;100115.34;;;23.75;58.43
57885;BME280;43703;51.060;-0.086;2022-08-18T08:19:07;100115.42;;;22.63;57.50
57885;BME280;43703;51.060;-0.086;2022-08-18T08:21:31;100115.49;;;23.19;56.71
57885;BME280;43703;51.060;-0.086;2022-08-18T08:23:55;100113.80;;;22.78;58.30
57885;BME280;43703;51.060;-0.086;2022-08-18T08:26:26;100113.56;;;23.09;59.85
57885;BME280;43703;51.060;-0.086;2022-08-18T08:28:50;100115.97;;;24.58;53.43
57885;BME280;43703;51.060;-0.086;2022-08-18T08:31:12;100115.69;;;24.97;54.11
57885;BME280;43703;51.060;-0.086;2022-08-18T08:33:40;100117.11;;;24.07;55.33
57885;BME280;43703;51.060;-0.086;2022-08-18T08:36:06;100119.17;;;24.33;56.47
57885;BME280;43703;51.060;-0.086;2022-08-18T08:38:32;100123.16;;;24.93;56.68
57885;BME280;43703;51.060;-0.086;2022-08-18T08:40:55;100118.57;;;24.36;52.19
57885;BME280;43703;51.060;-0.086;2022-08-18T08:43:20;100115.17;;;22.12;54.81
57885;BME280;43703;51.060;-0.086;2022-08-18T08:45:46;100113.79;;;21.83;55.54
57885;BME280;43703;51.060;-0.086;2022-08-18T08:48:14;100119.80;;;21.68;58.21
57885;BME280;43703;51.060;-0.086;2022-08-18T08:50:38;100117.47;;;22.25;59.20
57885;BME280;43703;51.060;-0.086;2022-08-18T08:53:05;100120.14;;;21.12;62.16
57885;BME280;43703;51.060;-0.086;2022-08-18T08:55:27;100117.46;;;21.44;59.92
57885;BME280;43703;51.060;-0.086;2022-08-18T08:57:54;100117.86;;;21.67;57.52
57885;BME280;43703;51.060;-0.086;2022-08-18T09:00:15;100113.99;;;20.55;58.92
57885;BME280;43703;51.060;-0.086;2022-08-18T09:02:55;100116.45;;;20.28;64.45
57885;BME280;43703;51.060;-0.086;2022-08-18T09:05:09;100110.72;;;22.35;62.89
57885;BME280;43703;51.060;-0.086;2022-08-18T09:07:45;100111.86;;;23.74;60.80
57885;BME280;43703;51.060;-0.086;2022-08-18T09:10:14;100109.43;;;23.49;56.47
57885;BME280;43703;51.060;-0.086;2022-08-18T09:12:37;100113.09;;;23.48;56.22
57885;BME280;43703;51.060;-0.086;2022-08-18T09:15:12;100115.20;;;24.46;55.33
57885;BME280;43703;51.060;-0.086;2022-08-18T09:17:27;100121.79;;;24.65;57.34
57885;BME280;43703;51.060;-0.086;2022-08-18T09:19:52;100119.55;;;25.99;58.32
57885;BME280;43703;51.060;-0.086;2022-08-18T09:22:11;100118.79;;;23.47;53.27
57885;BME280;43703;51.060;-0.086;2022-08-18T09:24:37;100121.10;;;24.63;54.57
57885;BME280;43703;51.060;-0.086;2022-08-18T09:29:25;100119.85;;;24.99;52.45
57885;BME280;43703;51.060;-0.086;2022-08-18T09:31:46;100116.14;;;25.08;54.88
57885;BME280;43703;51.060;-0.086;2022-08-18T09:34:24;100113.92;;;25.15;47.43
57885;BME280;43703;51.060;-0.086;2022-08-18T09:36:49;100112.10;;;26.30;54.68
57885;BME280;43703;51.060;-0.086;2022-08-18T09:39:14;100116.51;;;26.64;49.25
57885;BME280;43703;51.060;-0.086;2022-08-18T09:41:35;100118.59;;;25.60;44.41
57885;BME280;43703;51.060;-0.086;2022-08-18T09:43:56;100117.54;;;25.14;49.24
57885;BME280;43703;51.060;-0.086;2022-08-18T09:48:43;100107.94;;;27.16;47.88
57885;BME280;43703;51.060;-0.086;2022-08-18T09:51:14;100107.34;;;26.93;48.85
57885;BME280;43703;51.060;-0.086;2022-08-18T09:55:59;100104.70;;;26.97;47.65
57885;BME280;43703;51.060;-0.086;2022-08-18T10:03:21;100102.92;;;27.01;50.43
57885;BME280;43703;51.060;-0.086;2022-08-18T10:10:39;100095.44;;;25.37;46.50
57885;BME280;43703;51.060;-0.086;2022-08-18T10:13:05;100095.44;;;22.87;50.01
57885;BME280;43703;51.060;-0.086;2022-08-18T10:15:31;100094.01;;;23.43;48.83
57885;BME280;43703;51.060;-0.086;2022-08-18T10:17:58;100086.93;;;22.39;54.47
57885;BME280;43703;51.060;-0.086;2022-08-18T10:20:23;100087.39;;;22.89;53.30
57885;BME280;43703;51.060;-0.086;2022-08-18T10:22:41;100091.02;;;22.90;55.05
57885;BME280;43703;51.060;-0.086;2022-08-18T10:25:04;100092.89;;;23.14;53.60
57885;BME280;43703;51.060;-0.086;2022-08-18T10:27:45;100084.23;;;23.11;55.85
57885;BME280;43703;51.060;-0.086;2022-08-18T10:29:56;100078.85;;;22.80;51.18
57885;BME280;43703;51.060;-0.086;2022-08-18T10:32:33;100076.13;;;22.41;51.98
57885;BME280;43703;51.060;-0.086;2022-08-18T10:34:47;100076.16;;;22.48;52.26
57885;BME280;43703;51.060;-0.086;2022-08-18T10:37:12;100078.74;;;22.31;53.24
57885;BME280;43703;51.060;-0.086;2022-08-18T10:39:43;100084.17;;;21.36;54.26
57885;BME280;43703;51.060;-0.086;2022-08-18T10:42:05;100082.86;;;21.43;55.49
57885;BME280;43703;51.060;-0.086;2022-08-18T10:44:27;100078.87;;;20.67;56.80
57885;BME280;43703;51.060;-0.086;2022-08-18T10:46:52;100081.69;;;21.06;57.81
57885;BME280;43703;51.060;-0.086;2022-08-18T10:49:21;100082.69;;;20.56;58.42
57885;BME280;43703;51.060;-0.086;2022-08-18T10:51:50;100084.56;;;20.34;59.25
57885;BME280;43703;51.060;-0.086;2022-08-18T10:54:14;100081.76;;;20.99;58.01
57885;BME280;43703;51.060;-0.086;2022-08-18T10:56:39;100084.40;;;20.15;60.80
57885;BME280;43703;51.060;-0.086;2022-08-18T10:59:10;100081.41;;;20.83;61.51
57885;BME280;43703;51.060;-0.086;2022-08-18T11:01:38;100081.68;;;21.92;59.68
57885;BME280;43703;51.060;-0.086;2022-08-18T11:04:00;100081.64;;;23.55;59.13
57885;BME280;43703;51.060;-0.086;2022-08-18T11:06:18;100085.88;;;23.47;51.82
57885;BME280;43703;51.060;-0.086;2022-08-18T11:08:43;100091.16;;;23.13;53.26
57885;BME280;43703;51.060;-0.086;2022-08-18T11:11:08;100091.18;;;22.29;54.51
57885;BME280;43703;51.060;-0.086;2022-08-18T11:13:39;100088.65;;;22.53;58.35
57885;BME280;43703;51.060;-0.086;2022-08-18T11:16:04;100086.83;;;21.91;55.12
57885;BME280;43703;51.060;-0.086;2022-08-18T11:18:31;100082.85;;;23.11;57.97
57885;BME280;43703;51.060;-0.086;2022-08-18T11:20:49;100080.30;;;22.90;54.15
57885;BME280;43703;51.060;-0.086;2022-08-18T11:23:16;100077.16;;;23.86;53.35
57885;BME280;43703;51.060;-0.086;2022-08-18T11:25:40;100068.51;;;25.57;50.05
57885;BME280;43703;51.060;-0.086;2022-08-18T11:28:14;100065.99;;;25.37;50.01
57885;BME280;43703;51.060;-0.086;2022-08-18T11:30:34;100064.24;;;26.79;50.67
57885;BME280;43703;51.060;-0.086;2022-08-18T11:32:57;100066.75;;;28.44;48.85
57885;BME280;43703;51.060;-0.086;2022-08-18T11:35:26;100066.53;;;25.30;46.00
57885;BME280;43703;51.060;-0.086;2022-08-18T11:37:53;100069.24;;;26.36;47.60
57885;BME280;43703;51.060;-0.086;2022-08-18T11:40:21;100066.55;;;25.45;50.87
57885;BME280;43703;51.060;-0.086;2022-08-18T11:42:40;100060.20;;;25.52;46.69
57885;BME280;43703;51.060;-0.086;2022-08-18T11:45:11;100057.62;;;26.25;45.41
57885;BME280;43703;51.060;-0.086;2022-08-18T11:47:29;100052.96;;;26.70;49.93
57885;BME280;43703;51.060;-0.086;2022-08-18T11:49:57;100052.83;;;26.10;47.54
57885;BME280;43703;51.060;-0.086;2022-08-18T11:52:25;100047.42;;;25.94;45.04
57885;BME280;43703;51.060;-0.086;2022-08-18T11:54:48;100049.87;;;26.66;45.30
57885;BME280;43703;51.060;-0.086;2022-08-18T11:59:36;100047.21;;;26.01;47.03
57885;BME280;43703;51.060;-0.086;2022-08-18T12:02:02;100043.33;;;25.77;45.99
57885;BME280;43703;51.060;-0.086;2022-08-18T12:04:31;100043.52;;;26.05;47.29
57885;BME280;43703;51.060;-0.086;2022-08-18T12:06:58;100040.60;;;25.76;43.93
57885;BME280;43703;51.060;-0.086;2022-08-18T12:09:21;100045.40;;;26.26;45.67
57885;BME280;43703;51.060;-0.086;2022-08-18T12:11:51;100043.34;;;25.54;46.85
57885;BME280;43703;51.060;-0.086;2022-08-18T12:14:16;100037.50;;;25.08;47.36
57885;BME280;43703;51.060;-0.086;2022-08-18T12:16:37;100032.80;;;25.47;48.54
57885;BME280;43703;51.060;-0.086;2022-08-18T12:18:59;100023.19;;;25.23;46.52
57885;BME280;43703;51.060;-0.086;2022-08-18T12:21:25;100016.38;;;25.75;46.35
57885;BME280;43703;51.060;-0.086;2022-08-18T12:23:50;100013.84;;;25.07;46.32
57885;BME280;43703;51.060;-0.086;2022-08-18T12:26:15;100014.93;;;23.17;48.10
57885;BME280;43703;51.060;-0.086;2022-08-18T12:28:41;100010.78;;;24.81;48.70
57885;BME280;43703;51.060;-0.086;2022-08-18T12:31:06;100013.79;;;23.82;48.51
57885;BME280;43703;51.060;-0.086;2022-08-18T12:33:31;100011.96;;;23.17;49.36
57885;BME280;43703;51.060;-0.086;2022-08-18T12:35:56;100012.22;;;23.25;50.90
57885;BME280;43703;51.060;-0.086;2022-08-18T12:38:22;100009.24;;;23.22;52.20
57885;BME280;43703;51.060;-0.086;2022-08-18T12:40:47;100013.07;;;22.98;50.78
57885;BME280;43703;51.060;-0.086;2022-08-18T12:43:13;100011.73;;;22.78;51.00
57885;BME280;43703;51.060;-0.086;2022-08-18T12:45:38;100016.05;;;22.36;52.79
57885;BME280;43703;51.060;-0.086;2022-08-18T12:48:03;100014.98;;;22.84;51.09
57885;BME280;43703;51.060;-0.086;2022-08-18T12:50:28;100012.72;;;22.36;52.43
57885;BME280;43703;51.060;-0.086;2022-08-18T12:52:54;100011.48;;;22.55;53.43
57885;BME280;43703;51.060;-0.086;2022-08-18T12:55:19;100006.99;;;22.43;55.67
57885;BME280;43703;51.060;-0.086;2022-08-18T12:57:45;100010.31;;;22.43;53.19
57885;BME280;43703;51.060;-0.086;2022-08-18T13:00:11;100013.04;;;22.60;50.77